createdAt,value
2022-12-15T00:00:17.737Z,98.70
2022-12-15T00:03:38.393Z,98.50
2022-12-15T00:06:59.023Z,98.60
2022-12-15T00:10:19.241Z,98.60
2022-12-15T00:13:41.100Z,98.30
2022-12-15T00:17:01.253Z,98.00
2022-12-15T00:20:21.392Z,98.40
2022-12-15T00:23:41.705Z,98.60
2022-12-15T00:27:02.041Z,98.60
2022-12-15T00:30:25.062Z,98.20
2022-12-15T00:33:45.465Z,98.40
2022-12-15T00:37:05.820Z,98.30
2022-12-15T00:40:09.792Z,98.30
2022-12-15T00:43:12.647Z,97.80
2022-12-15T00:46:34.317Z,98.10
2022-12-15T00:49:54.702Z,97.90
2022-12-15T00:53:14.979Z,98.10
2022-12-15T00:56:35.339Z,98.20
2022-12-15T00:59:55.717Z,97.90
2022-12-15T01:03:17.479Z,98.00
2022-12-15T01:06:39.061Z,97.80
2022-12-15T01:09:59.609Z,97.80
2022-12-15T01:13:19.916Z,97.90
2022-12-15T01:16:40.215Z,97.90
2022-12-15T01:20:02.083Z,97.90
2022-12-15T01:23:05.158Z,97.90
2022-12-15T01:26:08.483Z,97.80
2022-12-15T01:29:11.374Z,97.60
2022-12-15T01:32:14.625Z,97.70
2022-12-15T01:35:19.739Z,97.60
2022-12-15T01:38:22.631Z,97.60
2022-12-15T01:41:25.822Z,98.00
2022-12-15T01:44:28.760Z,97.90
2022-12-15T01:47:32.041Z,98.00
2022-12-15T01:50:41.686Z,98.00
2022-12-15T01:53:50.208Z,97.70
2022-12-15T01:56:56.676Z,97.80
2022-12-15T02:00:03.653Z,97.90
2022-12-15T02:03:08.417Z,97.80
2022-12-15T02:06:13.391Z,97.70
2022-12-15T02:09:17.301Z,97.80
2022-12-15T02:12:29.246Z,97.80
2022-12-15T02:15:38.919Z,97.90
2022-12-15T02:18:51.774Z,97.70
2022-12-15T02:22:12.933Z,97.60
2022-12-15T02:25:43.467Z,97.50
2022-12-15T02:28:57.467Z,97.80
2022-12-15T02:32:09.328Z,97.70
2022-12-15T02:35:16.684Z,97.70
2022-12-15T02:38:30.021Z,97.60
2022-12-15T02:41:36.834Z,97.60
2022-12-15T02:44:44.020Z,97.60
2022-12-15T02:47:56.357Z,97.70
2022-12-15T02:51:09.938Z,97.70
2022-12-15T02:54:24.901Z,97.70
2022-12-15T02:57:38.070Z,97.40
2022-12-15T03:00:47.968Z,97.50
2022-12-15T03:03:53.234Z,97.90
2022-12-15T03:07:01.043Z,97.40
2022-12-15T03:10:07.084Z,97.60
2022-12-15T03:13:09.987Z,97.50
2022-12-15T03:16:12.960Z,97.30
2022-12-15T03:19:17.239Z,97.20
2022-12-15T03:22:20.317Z,97.30
2022-12-15T03:25:23.223Z,97.10
2022-12-15T03:28:26.120Z,97.00
2022-12-15T03:31:29.128Z,97.10
2022-12-15T03:34:33.648Z,96.90
2022-12-15T03:37:36.531Z,97.30
2022-12-15T03:40:39.416Z,97.40
2022-12-15T03:43:42.294Z,97.10
2022-12-15T03:46:45.206Z,96.90
2022-12-15T03:49:49.486Z,96.90
2022-12-15T03:52:53.370Z,96.90
2022-12-15T03:55:56.258Z,96.80
2022-12-15T03:58:59.160Z,96.70
2022-12-15T04:02:02.278Z,96.90
2022-12-15T04:05:07.829Z,96.90
2022-12-15T04:08:11.390Z,96.80
2022-12-15T04:11:14.269Z,96.70
2022-12-15T04:14:17.192Z,97.00
2022-12-15T04:17:20.101Z,96.80
2022-12-15T04:20:24.597Z,96.40
2022-12-15T04:23:27.711Z,96.60
2022-12-15T04:26:48.475Z,96.30
2022-12-15T04:30:10.242Z,96.30
2022-12-15T04:33:31.189Z,96.50
2022-12-15T04:36:54.077Z,96.60
2022-12-15T04:40:14.875Z,96.90
2022-12-15T04:43:35.191Z,96.60
2022-12-15T04:46:55.433Z,96.60
2022-12-15T04:50:15.948Z,96.60
2022-12-15T04:53:38.574Z,96.80
2022-12-15T04:56:58.829Z,96.80
2022-12-15T05:00:19.124Z,96.80
2022-12-15T05:03:39.656Z,96.80
2022-12-15T05:07:00.145Z,96.90
2022-12-15T05:10:23.113Z,97.00
2022-12-15T05:13:43.625Z,97.10
2022-12-15T05:17:04.083Z,97.30
2022-12-15T05:20:25.394Z,97.10
2022-12-15T05:23:45.752Z,97.10
2022-12-15T05:27:07.513Z,97.00
2022-12-15T05:30:28.673Z,97.00
2022-12-15T05:33:31.940Z,97.00
2022-12-15T05:36:35.212Z,96.70
2022-12-15T05:39:38.097Z,97.00
2022-12-15T05:42:42.340Z,97.00
2022-12-15T05:45:45.218Z,97.20
2022-12-15T05:48:48.385Z,97.30
2022-12-15T05:51:51.423Z,97.20
2022-12-15T05:54:54.325Z,97.10
2022-12-15T05:57:58.611Z,97.10
2022-12-15T06:01:05.955Z,97.10
2022-12-15T06:04:08.894Z,97.20
2022-12-15T06:07:11.807Z,96.80
2022-12-15T06:10:14.753Z,96.80
2022-12-15T06:13:19.104Z,96.90
2022-12-15T06:16:23.599Z,96.90
2022-12-15T06:19:26.493Z,96.80
2022-12-15T06:22:29.887Z,96.90
2022-12-15T06:25:32.927Z,97.00
2022-12-15T06:28:37.421Z,97.10
2022-12-15T06:31:42.499Z,96.90
2022-12-15T06:34:45.576Z,96.70
2022-12-15T06:37:48.471Z,96.70
2022-12-15T06:40:56.208Z,96.50
2022-12-15T06:44:01.381Z,96.60
2022-12-15T06:47:04.626Z,96.60
2022-12-15T06:50:07.901Z,96.70
2022-12-15T06:53:10.831Z,96.70
2022-12-15T06:56:18.359Z,97.10
2022-12-15T06:59:22.597Z,97.30
2022-12-15T07:02:29.144Z,97.90
2022-12-15T07:05:32.286Z,97.20
2022-12-15T07:08:41.301Z,96.90
2022-12-15T07:11:45.144Z,96.70
2022-12-15T07:14:53.373Z,96.80
2022-12-15T07:17:57.118Z,97.00
2022-12-15T07:21:04.524Z,96.90
2022-12-15T07:24:08.484Z,96.80
2022-12-15T07:27:11.480Z,97.00
2022-12-15T07:30:17.565Z,96.90
2022-12-15T07:33:20.535Z,96.90
2022-12-15T07:36:23.552Z,96.80
2022-12-15T07:39:27.343Z,96.90
2022-12-15T07:42:30.673Z,96.90
2022-12-15T07:45:34.910Z,96.90
2022-12-15T07:48:37.823Z,97.00
2022-12-15T07:51:41.251Z,97.00
2022-12-15T07:54:45.293Z,96.80
2022-12-15T07:57:49.101Z,97.10
2022-12-15T08:00:53.747Z,97.20
2022-12-15T08:03:56.827Z,97.10
2022-12-15T08:07:00.147Z,96.80
2022-12-15T08:10:03.381Z,96.60
2022-12-15T08:13:06.291Z,96.80
2022-12-15T08:16:10.983Z,96.70
2022-12-15T08:19:15.736Z,96.90
2022-12-15T08:22:18.677Z,96.60
2022-12-15T08:25:22.637Z,96.70
2022-12-15T08:28:25.549Z,96.90
2022-12-15T08:31:31.623Z,97.00
2022-12-15T08:34:34.555Z,96.90
2022-12-15T08:37:37.576Z,96.80
2022-12-15T08:40:40.442Z,96.90
2022-12-15T08:43:48.017Z,97.00
2022-12-15T08:46:53.088Z,97.10
2022-12-15T08:49:56.046Z,96.90
2022-12-15T08:53:29.167Z,96.80
2022-12-15T08:56:23.185Z,97.10
2022-12-15T08:59:26.506Z,97.10
2022-12-15T09:02:30.814Z,97.10
2022-12-15T09:05:35.733Z,97.20
2022-12-15T09:08:38.997Z,97.40
2022-12-15T09:11:41.897Z,97.00
2022-12-15T09:14:44.787Z,97.20
2022-12-15T09:17:49.293Z,97.20
2022-12-15T09:20:52.286Z,97.10
2022-12-15T09:23:58.371Z,96.90
2022-12-15T09:27:01.316Z,96.90
2022-12-15T09:30:06.628Z,97.40
2022-12-15T09:33:10.893Z,97.00
2022-12-15T09:36:14.365Z,96.90
2022-12-15T09:39:17.538Z,96.80
2022-12-15T09:42:25.929Z,96.70
2022-12-15T09:45:35.277Z,96.80
2022-12-15T09:48:44.378Z,96.70
2022-12-15T09:51:52.696Z,96.70
2022-12-15T09:54:55.948Z,96.90
2022-12-15T09:58:09.109Z,96.80
2022-12-15T10:01:21.473Z,97.00
2022-12-15T10:04:39.008Z,96.80
2022-12-15T10:07:46.391Z,97.10
2022-12-15T10:10:55.566Z,97.00
2022-12-15T10:14:05.236Z,97.20
2022-12-15T10:17:21.360Z,96.90
2022-12-15T10:20:28.680Z,97.00
2022-12-15T10:23:39.892Z,97.00
2022-12-15T10:26:44.132Z,97.00
2022-12-15T10:29:55.095Z,97.10
2022-12-15T10:33:03.727Z,97.10
2022-12-15T10:36:11.265Z,97.10
2022-12-15T10:39:16.203Z,97.20
2022-12-15T10:42:22.285Z,96.90
2022-12-15T10:45:36.678Z,97.00
2022-12-15T10:48:40.107Z,97.20
2022-12-15T10:51:48.394Z,97.00
2022-12-15T10:54:53.251Z,97.60
2022-12-15T10:57:59.914Z,97.30
2022-12-15T11:01:15.667Z,97.40
2022-12-15T11:04:27.499Z,97.50
2022-12-15T11:07:39.571Z,97.30
2022-12-15T11:11:09.763Z,97.30
2022-12-15T11:14:15.415Z,97.30
2022-12-15T11:17:19.911Z,97.20
2022-12-15T11:20:28.814Z,97.00
2022-12-15T11:23:48.885Z,97.40
2022-12-15T11:26:58.968Z,97.40
2022-12-15T11:30:12.325Z,97.20
2022-12-15T11:33:15.814Z,97.40
2022-12-15T11:36:31.066Z,97.30
2022-12-15T11:39:48.765Z,97.20
2022-12-15T11:43:19.140Z,97.30
2022-12-15T11:46:24.289Z,97.50
2022-12-15T11:49:43.152Z,97.60
2022-12-15T11:53:05.869Z,97.10
2022-12-15T11:56:21.542Z,97.20
2022-12-15T11:59:55.367Z,97.20
2022-12-15T12:03:08.829Z,97.30
2022-12-15T12:06:15.785Z,97.40
2022-12-15T12:09:30.519Z,97.30
2022-12-15T12:12:41.129Z,97.30
2022-12-15T12:15:55.602Z,97.30
2022-12-15T12:19:03.421Z,97.40
2022-12-15T12:22:13.112Z,97.60
2022-12-15T12:25:19.679Z,97.00
2022-12-15T12:28:29.638Z,97.30
2022-12-15T12:31:43.593Z,96.90
2022-12-15T12:35:31.433Z,96.90
2022-12-15T12:38:27.363Z,96.70
2022-12-15T12:41:38.000Z,96.70
2022-12-15T12:44:42.991Z,96.80
2022-12-15T12:47:50.578Z,96.70
2022-12-15T12:51:09.155Z,96.60
2022-12-15T12:54:42.638Z,96.80
2022-12-15T12:57:46.328Z,96.80
2022-12-15T13:01:07.995Z,97.20
2022-12-15T13:04:13.412Z,96.80
2022-12-15T13:07:31.047Z,97.00
2022-12-15T13:10:36.214Z,96.70
2022-12-15T13:13:51.087Z,97.10
2022-12-15T13:20:28.759Z,96.60
2022-12-15T13:23:42.503Z,96.90
2022-12-15T13:26:48.679Z,96.60
2022-12-15T13:29:57.927Z,96.70
2022-12-15T13:33:19.565Z,96.80
2022-12-15T13:36:50.665Z,97.00
2022-12-15T13:39:58.816Z,96.90
2022-12-15T13:43:10.368Z,97.20
2022-12-15T13:46:17.508Z,96.80
2022-12-15T13:49:27.923Z,96.70
2022-12-15T13:53:08.045Z,96.30
2022-12-15T13:56:18.308Z,96.60
2022-12-15T13:59:30.313Z,96.70
2022-12-15T14:02:35.743Z,96.50
2022-12-15T14:05:42.890Z,96.80
2022-12-15T14:08:45.911Z,96.60
2022-12-15T14:11:54.471Z,96.40
2022-12-15T14:14:57.718Z,96.30
2022-12-15T14:18:03.118Z,96.50
2022-12-15T14:21:20.316Z,96.80
2022-12-15T14:24:38.624Z,96.80
2022-12-15T14:27:42.764Z,97.00
2022-12-15T14:30:46.160Z,96.70
2022-12-15T14:34:00.301Z,96.70
2022-12-15T14:37:10.250Z,96.60
2022-12-15T14:40:16.910Z,97.90
2022-12-15T14:43:23.476Z,96.80
2022-12-15T14:46:28.209Z,96.60
2022-12-15T14:49:34.315Z,96.80
2022-12-15T14:52:41.216Z,96.80
2022-12-15T14:55:44.183Z,96.90
2022-12-15T14:58:48.836Z,96.80
2022-12-15T15:01:59.171Z,96.90
2022-12-15T15:05:04.909Z,96.90
2022-12-15T15:08:14.697Z,96.90
2022-12-15T15:11:29.711Z,97.40
2022-12-15T15:14:38.424Z,96.90
2022-12-15T15:17:46.813Z,97.10
2022-12-15T15:20:56.632Z,97.00
2022-12-15T15:24:02.885Z,96.80
2022-12-15T15:27:25.705Z,97.00
2022-12-15T15:30:28.935Z,96.90
2022-12-15T15:33:32.619Z,97.00
2022-12-15T15:36:37.720Z,96.80
2022-12-15T15:39:42.486Z,97.20
2022-12-15T15:42:46.330Z,97.30
2022-12-15T15:45:51.033Z,97.10
2022-12-15T15:48:56.585Z,97.40
2022-12-15T15:51:59.689Z,97.30
2022-12-15T15:55:03.985Z,97.30
2022-12-15T15:58:11.734Z,97.30
2022-12-15T16:01:14.660Z,97.40
2022-12-15T16:04:17.598Z,97.30
2022-12-15T16:07:24.383Z,97.40
2022-12-15T16:10:29.121Z,97.40
2022-12-15T16:13:32.013Z,97.40
2022-12-15T16:16:35.004Z,97.20
2022-12-15T16:19:39.856Z,97.40
2022-12-15T16:22:44.881Z,97.40
2022-12-15T16:25:52.771Z,97.30
2022-12-15T16:28:56.200Z,97.30
2022-12-15T16:31:59.151Z,97.10
2022-12-15T16:35:02.049Z,97.20
2022-12-15T16:38:05.180Z,97.20
2022-12-15T16:41:15.709Z,97.20
2022-12-15T16:44:18.673Z,97.30
2022-12-15T16:47:21.577Z,97.30
2022-12-15T16:50:30.285Z,97.20
2022-12-15T16:53:35.207Z,97.40
2022-12-15T16:56:39.494Z,97.40
2022-12-15T16:59:42.407Z,97.30
2022-12-15T17:02:45.453Z,97.10
2022-12-15T17:05:50.957Z,97.40
2022-12-15T17:08:57.541Z,97.60
2022-12-15T17:12:02.819Z,97.60
2022-12-15T17:15:16.549Z,97.60
2022-12-15T17:18:19.453Z,97.50
2022-12-15T17:21:26.829Z,97.50
2022-12-15T17:24:29.762Z,97.30
2022-12-15T17:27:34.091Z,97.40
2022-12-15T17:30:36.998Z,97.50
2022-12-15T17:33:39.891Z,97.60
2022-12-15T17:36:42.886Z,97.70
2022-12-15T17:39:50.861Z,97.70
2022-12-15T17:42:55.436Z,97.70
2022-12-15T17:45:58.331Z,97.90
2022-12-15T17:49:01.425Z,98.10
2022-12-15T17:52:08.127Z,98.10
2022-12-15T17:55:20.018Z,98.10
2022-12-15T17:58:26.152Z,98.20
2022-12-15T18:01:29.104Z,98.10
2022-12-15T18:04:32.379Z,98.10
2022-12-15T18:07:35.616Z,98.20
2022-12-15T18:10:40.657Z,98.20
2022-12-15T18:13:44.989Z,98.10
2022-12-15T18:16:48.259Z,98.10
2022-12-15T18:19:51.187Z,98.30
2022-12-15T18:22:54.815Z,98.40
2022-12-15T18:26:02.951Z,98.40
2022-12-15T18:29:14.138Z,98.40
2022-12-15T18:32:18.113Z,98.50
2022-12-15T18:35:23.972Z,98.30
2022-12-15T18:38:28.117Z,98.50
2022-12-15T18:41:31.027Z,98.40
2022-12-15T18:44:35.314Z,98.50
2022-12-15T18:47:38.233Z,98.60
2022-12-15T18:50:41.255Z,98.70
2022-12-15T18:53:44.750Z,98.80
2022-12-15T18:56:47.732Z,98.60
2022-12-15T18:59:51.955Z,98.70
2022-12-15T19:02:57.137Z,98.70
2022-12-15T19:06:02.785Z,98.70
2022-12-15T19:09:07.563Z,98.80
2022-12-15T19:12:21.130Z,98.80
2022-12-15T19:15:25.471Z,99.00
2022-12-15T19:18:46.211Z,98.90
2022-12-15T19:22:07.023Z,99.00
2022-12-15T19:25:13.067Z,98.90
2022-12-15T19:28:19.124Z,99.10
2022-12-15T19:31:23.547Z,99.20
2022-12-15T19:34:26.489Z,99.10
2022-12-15T19:37:31.869Z,99.20
2022-12-15T19:40:36.917Z,99.10
2022-12-15T19:43:39.900Z,99.30
2022-12-15T19:46:44.723Z,99.40
2022-12-15T19:49:47.675Z,99.40
2022-12-15T19:52:53.057Z,99.30
2022-12-15T19:55:58.167Z,99.40
2022-12-15T19:59:01.092Z,99.40
2022-12-15T20:02:05.486Z,99.60
2022-12-15T20:05:09.108Z,99.70
2022-12-15T20:08:16.124Z,99.60
2022-12-15T20:11:20.913Z,99.70
2022-12-15T20:14:23.849Z,99.90
2022-12-15T20:17:28.108Z,99.90
2022-12-15T20:20:31.350Z,99.90
2022-12-15T20:23:36.265Z,99.90
2022-12-15T20:26:40.248Z,99.90
2022-12-15T20:29:43.731Z,99.90
2022-12-15T20:32:48.436Z,99.90
2022-12-15T20:35:52.264Z,99.90
2022-12-15T20:38:55.591Z,99.90
2022-12-15T20:41:58.917Z,99.90
2022-12-15T20:45:02.123Z,99.90
2022-12-15T20:48:07.054Z,99.90
2022-12-15T20:51:23.755Z,99.90
2022-12-15T20:54:26.650Z,99.90
2022-12-15T20:57:29.550Z,99.90
2022-12-15T21:00:32.475Z,99.90
2022-12-15T21:03:38.217Z,99.90
2022-12-15T21:06:43.884Z,99.90
2022-12-15T21:09:47.219Z,99.90
2022-12-15T21:12:51.193Z,99.90
2022-12-15T21:15:54.622Z,99.90
2022-12-15T21:22:23.836Z,99.90
2022-12-15T21:25:29.045Z,99.90
2022-12-15T21:28:32.272Z,99.90
2022-12-15T21:31:35.586Z,99.90
2022-12-15T21:34:40.119Z,99.90
2022-12-15T21:37:44.609Z,99.90
2022-12-15T21:40:47.550Z,99.90
2022-12-15T21:43:51.053Z,99.90
2022-12-15T21:46:54.781Z,99.90
2022-12-15T21:49:58.686Z,99.90
2022-12-15T21:53:02.828Z,99.90
2022-12-15T21:56:06.117Z,99.90
2022-12-15T21:59:13.747Z,99.90
2022-12-15T22:02:24.582Z,99.90
2022-12-15T22:05:30.347Z,99.90
2022-12-15T22:08:33.577Z,99.90
2022-12-15T22:11:36.772Z,99.90
2022-12-15T22:14:39.832Z,99.90
2022-12-15T22:17:44.105Z,99.90
2022-12-15T22:20:49.927Z,99.90
2022-12-15T22:23:53.501Z,99.90
2022-12-15T22:26:56.467Z,99.90
2022-12-15T22:29:59.364Z,99.90
2022-12-15T22:33:03.384Z,99.90
2022-12-15T22:36:08.290Z,99.90
2022-12-15T22:39:11.776Z,99.90
2022-12-15T22:42:17.395Z,99.90
2022-12-15T22:45:23.831Z,99.90
2022-12-15T22:48:29.880Z,99.90
2022-12-15T22:51:35.052Z,99.90
2022-12-15T22:54:42.592Z,99.90
2022-12-15T22:57:52.074Z,99.90
2022-12-15T23:00:57.668Z,99.90
2022-12-15T23:04:00.748Z,99.90
2022-12-15T23:07:06.888Z,99.90
2022-12-15T23:10:28.513Z,99.90
2022-12-15T23:13:31.696Z,99.90
2022-12-15T23:16:35.191Z,99.90
2022-12-15T23:19:38.149Z,99.90
2022-12-15T23:22:42.472Z,99.90
2022-12-15T23:25:46.672Z,99.90
2022-12-15T23:28:49.784Z,99.90
2022-12-15T23:31:53.625Z,99.90
2022-12-15T23:34:56.498Z,99.90
2022-12-15T23:38:00.723Z,99.90
2022-12-15T23:41:03.678Z,99.90
2022-12-15T23:44:06.763Z,99.90
2022-12-15T23:47:09.725Z,99.90
2022-12-15T23:50:12.687Z,99.90
2022-12-15T23:53:17.224Z,99.90
2022-12-15T23:56:22.242Z,99.90
2022-12-15T23:59:25.199Z,99.90
